sensor_id;sensor_type;location;lat;lon;timestamp;pressure;altitude;pressure_sealevel;temperature;humidity
75521;BME280;64102;48.628;9.002;2023-04-25T00:02:10;95463.91;;;6.02;90.05
75521;BME280;64102;48.628;9.002;2023-04-25T00:04:35;95460.72;;;5.89;90.79
75521;BME280;64102;48.628;9.002;2023-04-25T00:07:03;95458.16;;;5.89;90.96
75521;BME280;64102;48.628;9.002;2023-04-25T00:09:28;95457.53;;;5.85;91.47
75521;BME280;64102;48.628;9.002;2023-04-25T00:11:54;95456.31;;;5.80;91.54
75521;BME280;64102;48.628;9.002;2023-04-25T00:14:19;95450.31;;;5.70;92.32
75521;BME280;64102;48.628;9.002;2023-04-25T00:16:45;95456.34;;;5.69;93.05
75521;BME280;64102;48.628;9.002;2023-04-25T00:19:10;95459.03;;;5.67;93.09
75521;BME280;64102;48.628;9.002;2023-04-25T00:21:36;95463.38;;;5.67;93.41
75521;BME280;64102;48.628;9.002;2023-04-25T00:24:08;95465.16;;;5.76;93.34
75521;BME280;64102;48.628;9.002;2023-04-25T00:26:34;95470.00;;;5.90;91.86
75521;BME280;64102;48.628;9.002;2023-04-25T00:29:01;95465.13;;;5.87;91.91
75521;BME280;64102;48.628;9.002;2023-04-25T00:31:26;95469.63;;;5.95;91.47
75521;BME280;64102;48.628;9.002;2023-04-25T00:33:51;95464.38;;;5.96;90.69
75521;BME280;64102;48.628;9.002;2023-04-25T00:36:18;95461.38;;;5.91;91.25
75521;BME280;64102;48.628;9.002;2023-04-25T00:38:43;95461.28;;;5.81;91.56
75521;BME280;64102;48.628;9.002;2023-04-25T00:41:09;95459.34;;;5.74;92.08
75521;BME280;64102;48.628;9.002;2023-04-25T00:43:36;95466.41;;;5.81;91.70
75521;BME280;64102;48.628;9.002;2023-04-25T00:46:02;95464.06;;;5.90;91.03
75521;BME280;64102;48.628;9.002;2023-04-25T00:48:27;95463.28;;;5.89;91.64
75521;BME280;64102;48.628;9.002;2023-04-25T00:50:55;95462.66;;;5.85;91.61
75521;BME280;64102;48.628;9.002;2023-04-25T00:53:23;95457.25;;;6.00;91.06
75521;BME280;64102;48.628;9.002;2023-04-25T00:55:49;95456.63;;;6.07;90.02
75521;BME280;64102;48.628;9.002;2023-04-25T00:58:17;95463.75;;;6.04;89.73
75521;BME280;64102;48.628;9.002;2023-04-25T01:00:44;95454.69;;;6.00;90.79
75521;BME280;64102;48.628;9.002;2023-04-25T01:03:10;95450.38;;;6.00;92.10
75521;BME280;64102;48.628;9.002;2023-04-25T01:05:36;95445.53;;;5.97;92.42
75521;BME280;64102;48.628;9.002;2023-04-25T01:08:01;95440.91;;;5.91;92.96
75521;BME280;64102;48.628;9.002;2023-04-25T01:10:27;95435.78;;;5.91;93.65
75521;BME280;64102;48.628;9.002;2023-04-25T01:12:52;95451.41;;;5.88;93.15
75521;BME280;64102;48.628;9.002;2023-04-25T01:15:17;95445.69;;;5.84;94.75
75521;BME280;64102;48.628;9.002;2023-04-25T01:17:43;95443.25;;;5.83;94.90
75521;BME280;64102;48.628;9.002;2023-04-25T01:20:10;95447.66;;;5.92;95.00
75521;BME280;64102;48.628;9.002;2023-04-25T01:22:36;95449.03;;;5.96;94.62
75521;BME280;64102;48.628;9.002;2023-04-25T01:25:02;95442.00;;;5.98;93.44
75521;BME280;64102;48.628;9.002;2023-04-25T01:27:27;95442.81;;;5.99;92.73
75521;BME280;64102;48.628;9.002;2023-04-25T01:29:54;95434.03;;;5.92;93.58
75521;BME280;64102;48.628;9.002;2023-04-25T01:32:20;95435.22;;;5.88;93.72
75521;BME280;64102;48.628;9.002;2023-04-25T01:34:46;95433.13;;;5.81;93.26
75521;BME280;64102;48.628;9.002;2023-04-25T01:37:12;95441.28;;;5.87;94.54
75521;BME280;64102;48.628;9.002;2023-04-25T01:39:37;95444.66;;;5.87;95.17
75521;BME280;64102;48.628;9.002;2023-04-25T01:42:03;95431.13;;;5.85;95.21
75521;BME280;64102;48.628;9.002;2023-04-25T01:44:28;95433.28;;;5.80;95.59
75521;BME280;64102;48.628;9.002;2023-04-25T01:46:54;95435.25;;;5.76;95.84
75521;BME280;64102;48.628;9.002;2023-04-25T01:49:19;95445.00;;;5.82;95.87
75521;BME280;64102;48.628;9.002;2023-04-25T01:51:45;95434.66;;;5.84;95.34
75521;BME280;64102;48.628;9.002;2023-04-25T01:54:10;95434.66;;;5.84;95.30
75521;BME280;64102;48.628;9.002;2023-04-25T01:56:37;95426.16;;;5.83;94.60
75521;BME280;64102;48.628;9.002;2023-04-25T01:59:04;95428.22;;;5.90;93.95
75521;BME280;64102;48.628;9.002;2023-04-25T02:01:30;95426.66;;;5.98;91.57
75521;BME280;64102;48.628;9.002;2023-04-25T02:03:56;95420.31;;;5.93;91.52
75521;BME280;64102;48.628;9.002;2023-04-25T02:06:21;95416.22;;;5.90;92.11
75521;BME280;64102;48.628;9.002;2023-04-25T02:08:47;95417.03;;;5.91;90.13
75521;BME280;64102;48.628;9.002;2023-04-25T02:11:12;95418.03;;;5.99;88.24
75521;BME280;64102;48.628;9.002;2023-04-25T02:13:37;95413.81;;;5.89;89.21
75521;BME280;64102;48.628;9.002;2023-04-25T02:16:03;95407.09;;;5.76;89.35
75521;BME280;64102;48.628;9.002;2023-04-25T02:18:28;95398.78;;;5.63;91.42
75521;BME280;64102;48.628;9.002;2023-04-25T02:20:54;95400.25;;;5.56;91.96
75521;BME280;64102;48.628;9.002;2023-04-25T02:23:19;95405.25;;;5.58;91.86
75521;BME280;64102;48.628;9.002;2023-04-25T02:25:45;95406.66;;;5.51;91.67
75521;BME280;64102;48.628;9.002;2023-04-25T02:28:10;95407.38;;;5.53;92.85
75521;BME280;64102;48.628;9.002;2023-04-25T02:30:36;95397.94;;;5.53;92.26
75521;BME280;64102;48.628;9.002;2023-04-25T02:33:01;95404.00;;;5.52;92.16
75521;BME280;64102;48.628;9.002;2023-04-25T02:35:27;95404.66;;;5.54;91.60
75521;BME280;64102;48.628;9.002;2023-04-25T02:37:52;95407.22;;;5.54;90.83
75521;BME280;64102;48.628;9.002;2023-04-25T02:40:18;95408.03;;;5.55;92.00
75521;BME280;64102;48.628;9.002;2023-04-25T02:42:43;95410.84;;;5.52;91.60
75521;BME280;64102;48.628;9.002;2023-04-25T02:45:11;95408.28;;;5.52;91.43
75521;BME280;64102;48.628;9.002;2023-04-25T02:47:36;95404.53;;;5.56;91.72
75521;BME280;64102;48.628;9.002;2023-04-25T02:50:01;95400.13;;;5.58;92.12
75521;BME280;64102;48.628;9.002;2023-04-25T02:52:27;95400.97;;;5.68;90.48
75521;BME280;64102;48.628;9.002;2023-04-25T02:54:52;95394.63;;;5.62;90.96
75521;BME280;64102;48.628;9.002;2023-04-25T02:57:18;95395.75;;;5.69;90.63
75521;BME280;64102;48.628;9.002;2023-04-25T02:59:43;95394.94;;;5.69;89.90
75521;BME280;64102;48.628;9.002;2023-04-25T03:02:09;95389.94;;;5.67;90.34
75521;BME280;64102;48.628;9.002;2023-04-25T03:04:35;95389.13;;;5.67;90.87
75521;BME280;64102;48.628;9.002;2023-04-25T03:07:00;95385.88;;;5.65;90.65
75521;BME280;64102;48.628;9.002;2023-04-25T03:09:26;95388.31;;;5.66;91.08
75521;BME280;64102;48.628;9.002;2023-04-25T03:11:51;95383.75;;;5.70;91.21
75521;BME280;64102;48.628;9.002;2023-04-25T03:14:17;95387.44;;;5.77;89.13
75521;BME280;64102;48.628;9.002;2023-04-25T03:16:42;95383.13;;;5.77;89.32
75521;BME280;64102;48.628;9.002;2023-04-25T03:19:07;95380.88;;;5.84;88.14
75521;BME280;64102;48.628;9.002;2023-04-25T03:21:34;95380.66;;;5.87;87.67
75521;BME280;64102;48.628;9.002;2023-04-25T03:24:01;95384.84;;;5.88;87.62
75521;BME280;64102;48.628;9.002;2023-04-25T03:26:27;95378.31;;;5.84;88.10
75521;BME280;64102;48.628;9.002;2023-04-25T03:28:52;95382.31;;;5.77;88.34
75521;BME280;64102;48.628;9.002;2023-04-25T03:31:18;95372.28;;;5.64;89.52
75521;BME280;64102;48.628;9.002;2023-04-25T03:33:43;95378.69;;;5.59;89.56
75521;BME280;64102;48.628;9.002;2023-04-25T03:36:08;95366.72;;;5.38;90.27
75521;BME280;64102;48.628;9.002;2023-04-25T03:38:35;95370.84;;;5.30;91.67
75521;BME280;64102;48.628;9.002;2023-04-25T03:41:01;95385.09;;;5.44;90.67
75521;BME280;64102;48.628;9.002;2023-04-25T03:43:26;95383.19;;;5.46;91.56
75521;BME280;64102;48.628;9.002;2023-04-25T03:45:52;95375.03;;;5.52;91.05
75521;BME280;64102;48.628;9.002;2023-04-25T03:48:17;95377.69;;;5.50;91.78
75521;BME280;64102;48.628;9.002;2023-04-25T03:50:43;95372.28;;;5.44;91.91
75521;BME280;64102;48.628;9.002;2023-04-25T03:53:08;95371.41;;;5.33;92.61
75521;BME280;64102;48.628;9.002;2023-04-25T03:55:33;95376.44;;;5.24;93.11
75521;BME280;64102;48.628;9.002;2023-04-25T03:57:59;95366.03;;;5.16;93.71
75521;BME280;64102;48.628;9.002;2023-04-25T04:00:25;95368.06;;;5.01;94.26
75521;BME280;64102;48.628;9.002;2023-04-25T04:02:50;95372.31;;;4.91;95.21
75521;BME280;64102;48.628;9.002;2023-04-25T04:05:16;95378.91;;;4.82;95.93
75521;BME280;64102;48.628;9.002;2023-04-25T04:07:41;95381.63;;;4.81;96.51
75521;BME280;64102;48.628;9.002;2023-04-25T04:10:08;95373.50;;;4.76;96.49
75521;BME280;64102;48.628;9.002;2023-04-25T04:12:34;95373.97;;;4.70;96.36
75521;BME280;64102;48.628;9.002;2023-04-25T04:15:00;95374.47;;;4.64;96.82
75521;BME280;64102;48.628;9.002;2023-04-25T04:17:25;95377.13;;;4.51;97.27
75521;BME280;64102;48.628;9.002;2023-04-25T04:19:50;95389.34;;;4.47;97.42
75521;BME280;64102;48.628;9.002;2023-04-25T04:22:16;95381.56;;;4.49;97.42
75521;BME280;64102;48.628;9.002;2023-04-25T04:24:41;95387.84;;;4.45;97.45
75521;BME280;64102;48.628;9.002;2023-04-25T04:27:09;95386.69;;;4.38;98.36
75521;BME280;64102;48.628;9.002;2023-04-25T04:29:34;95378.59;;;4.33;98.34
75521;BME280;64102;48.628;9.002;2023-04-25T04:32:02;95374.63;;;4.29;98.90
75521;BME280;64102;48.628;9.002;2023-04-25T04:34:27;95380.53;;;4.29;98.94
75521;BME280;64102;48.628;9.002;2023-04-25T04:36:52;95384.84;;;4.40;97.99
75521;BME280;64102;48.628;9.002;2023-04-25T04:39:18;95383.31;;;4.48;98.66
75521;BME280;64102;48.628;9.002;2023-04-25T04:41:43;95392.56;;;4.61;97.36
75521;BME280;64102;48.628;9.002;2023-04-25T04:44:09;95392.78;;;4.69;96.79
75521;BME280;64102;48.628;9.002;2023-04-25T04:46:35;95388.47;;;4.80;96.51
75521;BME280;64102;48.628;9.002;2023-04-25T04:49:13;95396.22;;;4.90;96.06
75521;BME280;64102;48.628;9.002;2023-04-25T04:51:41;95400.63;;;4.99;95.79
75521;BME280;64102;48.628;9.002;2023-04-25T04:54:09;95396.38;;;5.09;94.57
75521;BME280;64102;48.628;9.002;2023-04-25T04:56:34;95400.91;;;5.17;94.59
75521;BME280;64102;48.628;9.002;2023-04-25T04:59:00;95404.31;;;5.27;94.96
75521;BME280;64102;48.628;9.002;2023-04-25T05:01:26;95403.03;;;5.32;94.62
75521;BME280;64102;48.628;9.002;2023-04-25T05:03:52;95402.19;;;5.43;93.93
75521;BME280;64102;48.628;9.002;2023-04-25T05:06:18;95407.84;;;5.47;93.31
75521;BME280;64102;48.628;9.002;2023-04-25T05:08:44;95402.91;;;5.55;92.83
75521;BME280;64102;48.628;9.002;2023-04-25T05:11:19;95404.28;;;5.59;93.51
75521;BME280;64102;48.628;9.002;2023-04-25T05:13:44;95404.53;;;5.56;93.65
75521;BME280;64102;48.628;9.002;2023-04-25T05:16:11;95408.03;;;5.55;94.52
75521;BME280;64102;48.628;9.002;2023-04-25T05:18:36;95407.72;;;5.48;94.79
75521;BME280;64102;48.628;9.002;2023-04-25T05:21:02;95405.56;;;5.44;95.04
75521;BME280;64102;48.628;9.002;2023-04-25T05:23:27;95400.44;;;5.44;94.84
75521;BME280;64102;48.628;9.002;2023-04-25T05:25:53;95406.47;;;5.43;95.35
75521;BME280;64102;48.628;9.002;2023-04-25T05:28:19;95409.66;;;5.56;94.40
75521;BME280;64102;48.628;9.002;2023-04-25T05:30:45;95407.28;;;5.64;93.61
75521;BME280;64102;48.628;9.002;2023-04-25T05:33:11;95405.72;;;5.72;93.24
75521;BME280;64102;48.628;9.002;2023-04-25T05:35:36;95405.44;;;5.87;93.23
75521;BME280;64102;48.628;9.002;2023-04-25T05:38:01;95404.78;;;5.94;92.09
75521;BME280;64102;48.628;9.002;2023-04-25T05:40:27;95404.47;;;6.08;90.39
75521;BME280;64102;48.628;9.002;2023-04-25T05:42:52;95406.56;;;6.24;90.18
75521;BME280;64102;48.628;9.002;2023-04-25T05:45:17;95403.34;;;6.32;90.73
75521;BME280;64102;48.628;9.002;2023-04-25T05:47:43;95405.75;;;6.63;89.56
75521;BME280;64102;48.628;9.002;2023-04-25T05:50:08;95399.88;;;7.01;86.62
75521;BME280;64102;48.628;9.002;2023-04-25T05:52:34;95404.09;;;7.41;85.14
75521;BME280;64102;48.628;9.002;2023-04-25T05:54:59;95405.03;;;7.30;84.54
75521;BME280;64102;48.628;9.002;2023-04-25T05:57:26;95404.88;;;7.03;84.88
75521;BME280;64102;48.628;9.002;2023-04-25T05:59:52;95408.63;;;6.89;85.92
75521;BME280;64102;48.628;9.002;2023-04-25T06:02:19;95403.91;;;6.94;86.37
75521;BME280;64102;48.628;9.002;2023-04-25T06:04:45;95402.44;;;7.01;87.36
75521;BME280;64102;48.628;9.002;2023-04-25T06:07:10;95391.66;;;7.27;85.41
75521;BME280;64102;48.628;9.002;2023-04-25T06:09:36;95393.94;;;7.49;83.58
75521;BME280;64102;48.628;9.002;2023-04-25T06:12:01;95395.22;;;7.82;82.21
75521;BME280;64102;48.628;9.002;2023-04-25T06:14:27;95400.34;;;7.91;82.07
75521;BME280;64102;48.628;9.002;2023-04-25T06:16:52;95397.66;;;7.83;81.91
75521;BME280;64102;48.628;9.002;2023-04-25T06:19:18;95402.03;;;7.63;81.79
75521;BME280;64102;48.628;9.002;2023-04-25T06:21:44;95400.72;;;7.50;82.60
75521;BME280;64102;48.628;9.002;2023-04-25T06:24:09;95396.91;;;7.44;82.70
75521;BME280;64102;48.628;9.002;2023-04-25T06:26:34;95401.78;;;7.47;83.21
75521;BME280;64102;48.628;9.002;2023-04-25T06:29:00;95394.22;;;7.36;83.50
75521;BME280;64102;48.628;9.002;2023-04-25T06:31:25;95399.75;;;7.22;83.38
75521;BME280;64102;48.628;9.002;2023-04-25T06:33:51;95404.47;;;7.17;84.39
75521;BME280;64102;48.628;9.002;2023-04-25T06:36:19;95405.41;;;7.06;85.83
75521;BME280;64102;48.628;9.002;2023-04-25T06:38:50;95403.66;;;6.97;85.73
75521;BME280;64102;48.628;9.002;2023-04-25T06:41:15;95414.47;;;6.91;86.41
75521;BME280;64102;48.628;9.002;2023-04-25T06:43:40;95406.97;;;6.79;87.24
75521;BME280;64102;48.628;9.002;2023-04-25T06:46:06;95409.94;;;6.74;87.45
75521;BME280;64102;48.628;9.002;2023-04-25T06:48:31;95410.47;;;6.58;89.00
75521;BME280;64102;48.628;9.002;2023-04-25T06:50:57;95400.09;;;6.60;88.96
75521;BME280;64102;48.628;9.002;2023-04-25T06:53:22;95407.84;;;6.49;90.04
75521;BME280;64102;48.628;9.002;2023-04-25T06:55:47;95417.19;;;6.50;91.02
75521;BME280;64102;48.628;9.002;2023-04-25T06:58:13;95417.44;;;6.56;92.85
75521;BME280;64102;48.628;9.002;2023-04-25T07:00:38;95421.72;;;6.37;91.59
75521;BME280;64102;48.628;9.002;2023-04-25T07:03:04;95419.03;;;6.38;93.69
75521;BME280;64102;48.628;9.002;2023-04-25T07:05:30;95423.59;;;6.35;94.21
75521;BME280;64102;48.628;9.002;2023-04-25T07:07:55;95413.28;;;6.15;91.41
75521;BME280;64102;48.628;9.002;2023-04-25T07:10:21;95427.00;;;6.14;93.64
75521;BME280;64102;48.628;9.002;2023-04-25T07:12:46;95429.16;;;6.09;94.84
75521;BME280;64102;48.628;9.002;2023-04-25T07:15:11;95432.13;;;6.14;94.99
75521;BME280;64102;48.628;9.002;2023-04-25T07:17:37;95426.19;;;6.14;94.66
75521;BME280;64102;48.628;9.002;2023-04-25T07:20:04;95427.50;;;6.08;94.09
75521;BME280;64102;48.628;9.002;2023-04-25T07:22:29;95427.94;;;6.13;94.89
75521;BME280;64102;48.628;9.002;2023-04-25T07:24:55;95428.22;;;6.10;92.79
75521;BME280;64102;48.628;9.002;2023-04-25T07:27:20;95425.72;;;5.99;92.88
75521;BME280;64102;48.628;9.002;2023-04-25T07:29:46;95435.75;;;6.12;95.17
75521;BME280;64102;48.628;9.002;2023-04-25T07:32:11;95436.19;;;6.17;95.45
75521;BME280;64102;48.628;9.002;2023-04-25T07:34:38;95436.28;;;6.36;96.20
75521;BME280;64102;48.628;9.002;2023-04-25T07:37:04;95436.66;;;6.32;95.04
75521;BME280;64102;48.628;9.002;2023-04-25T07:39:30;95436.81;;;6.09;95.78
75521;BME280;64102;48.628;9.002;2023-04-25T07:41:55;95441.19;;;6.18;97.57
75521;BME280;64102;48.628;9.002;2023-04-25T07:44:23;95437.16;;;6.25;97.28
75521;BME280;64102;48.628;9.002;2023-04-25T07:46:49;95440.00;;;6.22;97.83
75521;BME280;64102;48.628;9.002;2023-04-25T07:49:14;95442.16;;;6.27;96.66
75521;BME280;64102;48.628;9.002;2023-04-25T07:51:40;95446.88;;;6.22;97.65
75521;BME280;64102;48.628;9.002;2023-04-25T07:54:06;95451.59;;;5.96;98.30
75521;BME280;64102;48.628;9.002;2023-04-25T07:56:32;95462.09;;;5.93;99.15
75521;BME280;64102;48.628;9.002;2023-04-25T07:58:57;95461.50;;;5.90;99.64
75521;BME280;64102;48.628;9.002;2023-04-25T08:01:22;95465.31;;;5.95;100.00
75521;BME280;64102;48.628;9.002;2023-04-25T08:03:48;95469.78;;;5.93;99.56
75521;BME280;64102;48.628;9.002;2023-04-25T08:06:13;95478.28;;;5.82;99.16
75521;BME280;64102;48.628;9.002;2023-04-25T08:08:38;95472.91;;;5.85;100.00
75521;BME280;64102;48.628;9.002;2023-04-25T08:11:04;95481.66;;;5.83;100.00
75521;BME280;64102;48.628;9.002;2023-04-25T08:13:29;95487.81;;;5.60;95.04
75521;BME280;64102;48.628;9.002;2023-04-25T08:15:55;95487.97;;;5.47;96.88
75521;BME280;64102;48.628;9.002;2023-04-25T08:18:20;95492.84;;;5.50;99.23
75521;BME280;64102;48.628;9.002;2023-04-25T08:20:45;95498.84;;;5.28;97.02
75521;BME280;64102;48.628;9.002;2023-04-25T08:23:11;95499.97;;;5.04;97.32
75521;BME280;64102;48.628;9.002;2023-04-25T08:25:36;95496.72;;;5.02;100.00
75521;BME280;64102;48.628;9.002;2023-04-25T08:28:01;95501.47;;;5.17;100.00
75521;BME280;64102;48.628;9.002;2023-04-25T08:30:28;95512.34;;;5.30;99.19
75521;BME280;64102;48.628;9.002;2023-04-25T08:32:54;95511.28;;;5.33;100.00
75521;BME280;64102;48.628;9.002;2023-04-25T08:35:19;95515.59;;;5.32;100.00
75521;BME280;64102;48.628;9.002;2023-04-25T08:37:45;95520.69;;;5.44;100.00
75521;BME280;64102;48.628;9.002;2023-04-25T08:40:14;95515.56;;;5.44;100.00
75521;BME280;64102;48.628;9.002;2023-04-25T08:42:41;95523.25;;;5.44;100.00
75521;BME280;64102;48.628;9.002;2023-04-25T08:45:08;95529.84;;;5.46;100.00
75521;BME280;64102;48.628;9.002;2023-04-25T08:47:34;95533.47;;;5.44;100.00
75521;BME280;64102;48.628;9.002;2023-04-25T08:50:02;95535.00;;;5.35;100.00
75521;BME280;64102;48.628;9.002;2023-04-25T08:52:29;95543.50;;;5.24;98.61
75521;BME280;64102;48.628;9.002;2023-04-25T08:54:58;95544.22;;;5.15;100.00
75521;BME280;64102;48.628;9.002;2023-04-25T08:57:26;95552.72;;;5.16;100.00
75521;BME280;64102;48.628;9.002;2023-04-25T08:59:52;95554.00;;;5.10;100.00
75521;BME280;64102;48.628;9.002;2023-04-25T09:02:18;95559.31;;;5.18;100.00
75521;BME280;64102;48.628;9.002;2023-04-25T09:04:45;95563.28;;;5.22;100.00
75521;BME280;64102;48.628;9.002;2023-04-25T09:07:11;95569.34;;;5.21;99.05
75521;BME280;64102;48.628;9.002;2023-04-25T09:09:36;95574.66;;;5.18;99.41
75521;BME280;64102;48.628;9.002;2023-04-25T09:12:02;95580.28;;;5.12;98.58
75521;BME280;64102;48.628;9.002;2023-04-25T09:14:28;95575.28;;;5.11;99.18
75521;BME280;64102;48.628;9.002;2023-04-25T09:19:29;95583.06;;;4.98;99.72
75521;BME280;64102;48.628;9.002;2023-04-25T09:21:56;95592.47;;;4.97;100.00
75521;BME280;64102;48.628;9.002;2023-04-25T09:24:44;95591.78;;;4.95;99.52
75521;BME280;64102;48.628;9.002;2023-04-25T09:27:12;95594.44;;;4.83;99.09
75521;BME280;64102;48.628;9.002;2023-04-25T09:29:40;95601.78;;;4.87;98.00
75521;BME280;64102;48.628;9.002;2023-04-25T09:34:43;95614.06;;;4.82;100.00
75521;BME280;64102;48.628;9.002;2023-04-25T09:37:09;95610.72;;;4.71;99.79
75521;BME280;64102;48.628;9.002;2023-04-25T09:39:36;95615.47;;;4.64;100.00
75521;BME280;64102;48.628;9.002;2023-04-25T09:42:03;95619.75;;;4.53;100.00
75521;BME280;64102;48.628;9.002;2023-04-25T09:44:29;95629.84;;;4.54;100.00
75521;BME280;64102;48.628;9.002;2023-04-25T09:46:54;95623.00;;;4.55;100.00
75521;BME280;64102;48.628;9.002;2023-04-25T09:49:20;95629.97;;;4.53;100.00
75521;BME280;64102;48.628;9.002;2023-04-25T09:51:58;95634.47;;;4.49;100.00
75521;BME280;64102;48.628;9.002;2023-04-25T09:54:24;95634.38;;;4.50;100.00
75521;BME280;64102;48.628;9.002;2023-04-25T09:56:52;95636.25;;;4.60;100.00
75521;BME280;64102;48.628;9.002;2023-04-25T09:59:21;95635.31;;;4.49;99.70
75521;BME280;64102;48.628;9.002;2023-04-25T10:01:51;95643.31;;;4.45;100.00
75521;BME280;64102;48.628;9.002;2023-04-25T10:04:24;95638.88;;;4.47;100.00
75521;BME280;64102;48.628;9.002;2023-04-25T10:06:52;95644.94;;;4.57;100.00
75521;BME280;64102;48.628;9.002;2023-04-25T10:09:25;95643.44;;;4.66;100.00
75521;BME280;64102;48.628;9.002;2023-04-25T10:11:51;95645.44;;;4.62;100.00
75521;BME280;64102;48.628;9.002;2023-04-25T10:14:18;95647.88;;;4.64;99.97
75521;BME280;64102;48.628;9.002;2023-04-25T10:16:44;95654.38;;;4.68;98.96
75521;BME280;64102;48.628;9.002;2023-04-25T10:19:10;95645.78;;;4.69;97.74
75521;BME280;64102;48.628;9.002;2023-04-25T10:21:44;95655.06;;;4.70;98.46
75521;BME280;64102;48.628;9.002;2023-04-25T10:24:11;95652.31;;;4.84;99.55
75521;BME280;64102;48.628;9.002;2023-04-25T10:26:37;95659.97;;;4.84;98.68
75521;BME280;64102;48.628;9.002;2023-04-25T10:29:03;95651.50;;;4.83;98.86
75521;BME280;64102;48.628;9.002;2023-04-25T10:31:30;95653.38;;;4.92;99.20
75521;BME280;64102;48.628;9.002;2023-04-25T10:33:56;95654.91;;;4.95;97.69
75521;BME280;64102;48.628;9.002;2023-04-25T10:36:22;95659.66;;;5.11;98.91
75521;BME280;64102;48.628;9.002;2023-04-25T10:38:50;95655.72;;;5.18;96.64
75521;BME280;64102;48.628;9.002;2023-04-25T10:41:18;95661.53;;;5.31;98.32
75521;BME280;64102;48.628;9.002;2023-04-25T10:43:47;95655.72;;;5.40;97.81
75521;BME280;64102;48.628;9.002;2023-04-25T10:46:17;95656.03;;;5.47;95.57
75521;BME280;64102;48.628;9.002;2023-04-25T10:48:55;95660.47;;;5.56;95.93
75521;BME280;64102;48.628;9.002;2023-04-25T10:51:33;95663.81;;;5.67;96.58
75521;BME280;64102;48.628;9.002;2023-04-25T10:54:01;95671.94;;;5.72;95.16
75521;BME280;64102;48.628;9.002;2023-04-25T10:56:37;95664.28;;;5.61;93.51
75521;BME280;64102;48.628;9.002;2023-04-25T10:59:13;95673.94;;;5.69;96.16
75521;BME280;64102;48.628;9.002;2023-04-25T11:01:43;95681.16;;;5.75;95.72
75521;BME280;64102;48.628;9.002;2023-04-25T11:04:30;95680.91;;;5.78;95.48
75521;BME280;64102;48.628;9.002;2023-04-25T11:07:07;95686.47;;;5.94;96.97
75521;BME280;64102;48.628;9.002;2023-04-25T11:09:38;95685.69;;;5.94;95.23
75521;BME280;64102;48.628;9.002;2023-04-25T11:12:03;95682.28;;;5.82;96.37
75521;BME280;64102;48.628;9.002;2023-04-25T11:14:30;95691.69;;;6.04;96.73
75521;BME280;64102;48.628;9.002;2023-04-25T11:16:57;95695.78;;;5.95;97.62
75521;BME280;64102;48.628;9.002;2023-04-25T11:19:23;95690.06;;;6.03;96.99
75521;BME280;64102;48.628;9.002;2023-04-25T11:21:49;95693.88;;;6.08;97.56
75521;BME280;64102;48.628;9.002;2023-04-25T11:24:18;95695.00;;;6.26;96.84
75521;BME280;64102;48.628;9.002;2023-04-25T11:26:43;95693.88;;;6.19;93.43
75521;BME280;64102;48.628;9.002;2023-04-25T11:29:12;95694.63;;;6.31;94.16
75521;BME280;64102;48.628;9.002;2023-04-25T11:31:38;95698.72;;;6.34;95.68
75521;BME280;64102;48.628;9.002;2023-04-25T11:34:03;95695.63;;;6.51;93.60
75521;BME280;64102;48.628;9.002;2023-04-25T11:36:28;95688.84;;;6.50;94.40
75521;BME280;64102;48.628;9.002;2023-04-25T11:38:54;95694.81;;;6.50;93.35
75521;BME280;64102;48.628;9.002;2023-04-25T11:41:19;95693.16;;;6.28;94.77
75521;BME280;64102;48.628;9.002;2023-04-25T11:43:45;95694.28;;;6.36;94.24
75521;BME280;64102;48.628;9.002;2023-04-25T11:46:11;95699.44;;;6.24;96.02
75521;BME280;64102;48.628;9.002;2023-04-25T11:48:40;95703.41;;;6.17;97.62
75521;BME280;64102;48.628;9.002;2023-04-25T11:51:06;95710.06;;;6.09;96.94
75521;BME280;64102;48.628;9.002;2023-04-25T11:53:31;95719.09;;;5.92;98.09
75521;BME280;64102;48.628;9.002;2023-04-25T11:55:57;95725.69;;;5.83;99.85
75521;BME280;64102;48.628;9.002;2023-04-25T11:58:22;95722.59;;;5.58;98.98
75521;BME280;64102;48.628;9.002;2023-04-25T12:00:48;95724.88;;;5.50;100.00
75521;BME280;64102;48.628;9.002;2023-04-25T12:03:13;95724.41;;;5.78;100.00
75521;BME280;64102;48.628;9.002;2023-04-25T12:05:38;95730.72;;;5.74;99.95
75521;BME280;64102;48.628;9.002;2023-04-25T12:08:15;95724.97;;;6.04;100.00
75521;BME280;64102;48.628;9.002;2023-04-25T12:10:43;95729.59;;;6.21;97.62
75521;BME280;64102;48.628;9.002;2023-04-25T12:13:26;95738.66;;;6.36;97.43
75521;BME280;64102;48.628;9.002;2023-04-25T12:15:55;95738.81;;;6.55;95.41
75521;BME280;64102;48.628;9.002;2023-04-25T12:18:23;95744.69;;;6.46;97.61
75521;BME280;64102;48.628;9.002;2023-04-25T12:20:49;95738.91;;;6.65;97.30
75521;BME280;64102;48.628;9.002;2023-04-25T12:23:14;95738.31;;;6.29;98.57
75521;BME280;64102;48.628;9.002;2023-04-25T12:25:42;95740.50;;;6.34;98.46
75521;BME280;64102;48.628;9.002;2023-04-25T12:28:20;95746.25;;;6.26;97.39
75521;BME280;64102;48.628;9.002;2023-04-25T12:31:00;95748.97;;;6.14;100.00
75521;BME280;64102;48.628;9.002;2023-04-25T12:33:37;95746.97;;;6.17;97.08
75521;BME280;64102;48.628;9.002;2023-04-25T12:36:04;95753.63;;;6.20;98.36
75521;BME280;64102;48.628;9.002;2023-04-25T12:38:41;95753.69;;;6.29;97.64
75521;BME280;64102;48.628;9.002;2023-04-25T12:41:08;95761.72;;;6.25;95.98
75521;BME280;64102;48.628;9.002;2023-04-25T12:43:34;95763.47;;;6.36;97.86
75521;BME280;64102;48.628;9.002;2023-04-25T12:45:59;95764.03;;;6.39;99.28
75521;BME280;64102;48.628;9.002;2023-04-25T12:48:25;95760.09;;;6.67;98.32
75521;BME280;64102;48.628;9.002;2023-04-25T12:50:50;95749.94;;;6.65;95.15
75521;BME280;64102;48.628;9.002;2023-04-25T12:53:21;95761.59;;;6.38;92.79
75521;BME280;64102;48.628;9.002;2023-04-25T12:55:47;95755.50;;;6.50;92.57
75521;BME280;64102;48.628;9.002;2023-04-25T12:58:14;95758.34;;;6.88;94.39
75521;BME280;64102;48.628;9.002;2023-04-25T13:00:39;95766.19;;;7.49;92.98
75521;BME280;64102;48.628;9.002;2023-04-25T13:03:04;95758.94;;;7.33;90.64
75521;BME280;64102;48.628;9.002;2023-04-25T13:05:30;95762.47;;;7.42;91.20
75521;BME280;64102;48.628;9.002;2023-04-25T13:07:56;95760.34;;;7.77;86.06
75521;BME280;64102;48.628;9.002;2023-04-25T13:10:21;95758.31;;;8.70;87.52
75521;BME280;64102;48.628;9.002;2023-04-25T13:12:47;95756.53;;;9.56;83.52